Weather at Martim Longo Airstrip

Public forecast

Using degrees Celsius for public forecast. Weather courtesy of forecast.io.

Closest aviation weather report (METAR) to Martim Longo Airstrip

Closest report is Faro Airport, 27.0 nm (49.9 km) SSW.

2024/06/13 19:30 (retrieved 24 minutes ago)

LPFR 131930Z 26010KT CAVOK 22/14 Q1017

Closest aviation forecast (TAF) to Martim Longo Airstrip

Closest forecast is Faro Airport, 27.0 nm (49.9 km) SSW.

2024/06/13 18:18 (retrieved 2 hours ago)

TAF LPFR 131700Z 1318/1418 25010KT CAVOK BECMG 1318/1320 31008KT BECMG 1400/1402 VRB02KT BECMG 1408/1410 23008KT BECMG 1412/1414 25015KT